Time;durP1;ratioP1;P1;durP2;ratioP2;P2;SDS_P1;SDS_P2;PMS_P1;PMS_P2;Temp;Humidity;BMP_temperature;BMP_pressure;BME280_temperature;BME280_humidity;BME280_pressure;Samples;Min_cycle;Max_cycle;Signal;HPM_P1;HPM_P2
2022/11/09 00:01:36;;;;;;;37.80;25.85;;;;;;;10.70;57.47;100224.09;5014222;28;20017;-81
2022/11/09 00:04:03;;;;;;;31.88;26.08;;;;;;;11.09;56.96;100283.25;5014043;28;20021;-81
2022/11/09 00:06:30;;;;;;;36.25;27.48;;;;;;;10.44;57.02;100195.16;5013823;28;20084;-81
2022/11/09 00:08:55;;;;;;;30.90;24.60;;;;;;;9.95;57.49;100131.59;5014133;28;20037;-81
2022/11/09 00:11:21;;;;;;;33.92;26.88;;;;;;;10.86;57.37;100281.41;5014093;28;20525;-81
2022/11/09 00:13:47;;;;;;;33.25;25.70;;;;;;;9.99;57.69;100137.38;5013878;28;20057;-81
2022/11/09 00:16:16;;;;;;;29.10;23.75;;;;;;;10.91;57.56;100271.16;5013816;28;20028;-81
2022/11/09 00:18:46;;;;;;;31.27;22.83;;;;;;;10.45;57.15;100196.78;5014019;28;20388;-81
2022/11/09 00:21:17;;;;;;;33.15;23.98;;;;;;;9.73;57.34;100105.81;5013985;28;20475;-81
2022/11/09 00:23:43;;;;;;;28.38;22.85;;;;;;;10.46;56.99;100203.72;5014079;28;20062;-81
2022/11/09 00:26:10;;;;;;;32.65;23.65;;;;;;;10.48;57.80;100199.13;5014052;28;20049;-81
2022/11/09 00:28:36;;;;;;;28.83;24.88;;;;;;;10.58;57.71;100238.56;5013852;28;20037;-81
2022/11/09 00:31:08;;;;;;;31.25;25.50;;;;;;;10.59;57.41;100225.22;5013644;28;20113;-81
2022/11/09 00:33:34;;;;;;;31.85;25.05;;;;;;;9.82;57.27;100107.50;5013545;28;20491;-81
2022/11/09 00:36:06;;;;;;;31.67;24.38;;;;;;;9.78;57.10;100112.25;5013396;28;20117;-81
2022/11/09 00:38:32;;;;;;;31.60;24.95;;;;;;;9.61;57.21;100076.22;5013639;28;20060;-81
2022/11/09 00:41:04;;;;;;;29.40;23.33;;;;;;;10.42;57.08;100199.75;5013685;28;20022;-81
2022/11/09 00:43:30;;;;;;;30.23;23.33;;;;;;;11.03;57.49;100269.88;5013584;28;20090;-81
2022/11/09 00:45:55;;;;;;;28.77;23.95;;;;;;;9.98;57.60;100118.09;5013492;28;20029;-81
2022/11/09 00:48:21;;;;;;;28.98;22.23;;;;;;;10.31;57.07;100152.50;5013528;28;20032;-81
2022/11/09 00:50:50;;;;;;;31.50;24.17;;;;;;;10.62;57.48;100192.38;5013422;28;20026;-81
2022/11/09 00:53:16;;;;;;;27.55;22.52;;;;;;;9.78;57.19;100093.78;5013323;28;20422;-81
2022/11/09 00:55:41;;;;;;;27.30;21.83;;;;;;;10.23;57.71;100168.34;5013155;28;20022;-81
2022/11/09 00:58:07;;;;;;;29.73;21.45;;;;;;;10.03;58.15;100123.72;5012506;28;20034;-81
2022/11/09 01:00:32;;;;;;;27.67;22.70;;;;;;;10.78;57.79;100242.59;5013049;28;20026;-81
2022/11/09 01:02:57;;;;;;;29.65;22.08;;;;;;;10.00;57.67;100110.03;5012959;28;20088;-82
2022/11/09 01:05:23;;;;;;;26.50;21.40;;;;;;;10.17;57.61;100138.09;5013134;28;20064;-81
2022/11/09 01:07:49;;;;;;;32.40;21.80;;;;;;;10.35;57.96;100190.81;5012962;28;20612;-81
2022/11/09 01:10:14;;;;;;;29.08;22.83;;;;;;;10.92;57.50;100234.03;5013084;28;20041;-81
2022/11/09 01:12:39;;;;;;;28.38;22.15;;;;;;;10.52;57.61;100171.41;5012877;28;20513;-82
2022/11/09 01:15:05;;;;;;;26.30;20.42;;;;;;;10.90;57.69;100265.06;5012643;28;20030;-81
2022/11/09 01:17:31;;;;;;;34.38;23.52;;;;;;;10.83;58.34;100242.94;5012869;28;20032;-81
2022/11/09 01:19:56;;;;;;;28.77;22.60;;;;;;;10.44;58.13;100189.88;5012896;28;20522;-82
2022/11/09 01:22:21;;;;;;;29.52;22.40;;;;;;;10.23;58.19;100161.25;5012827;28;20637;-82
2022/11/09 01:24:47;;;;;;;28.60;22.35;;;;;;;9.64;58.04;100065.38;5011495;28;20021;-82
2022/11/09 01:27:12;;;;;;;30.88;20.65;;;;;;;10.03;57.30;100123.72;5012826;28;20029;-81
2022/11/09 01:29:38;;;;;;;27.67;21.92;;;;;;;9.94;57.84;100121.22;5012669;28;20025;-81
2022/11/09 01:32:04;;;;;;;30.40;23.40;;;;;;;10.64;57.70;100236.13;5012549;28;20406;-81
2022/11/09 01:34:29;;;;;;;33.72;25.58;;;;;;;9.99;58.16;100174.31;5012376;28;20029;-81
2022/11/09 01:36:55;;;;;;;33.50;23.92;;;;;;;9.52;57.83;100127.25;5011251;28;20080;-81
2022/11/09 01:39:20;;;;;;;29.15;23.25;;;;;;;8.99;58.29;100022.09;5012434;28;20053;-80
2022/11/09 01:41:46;;;;;;;32.50;24.42;;;;;;;9.07;58.22;100057.19;5012529;28;20022;-81
2022/11/09 01:44:14;;;;;;;33.30;24.13;;;;;;;9.88;58.79;100189.44;5012306;28;20104;-81
2022/11/09 01:46:43;;;;;;;29.10;22.42;;;;;;;10.12;58.49;100238.03;5011095;28;20029;-80
2022/11/09 01:49:18;;;;;;;32.13;24.23;;;;;;;10.08;58.43;100232.25;5012587;28;20057;-81
2022/11/09 01:51:48;;;;;;;30.45;22.42;;;;;;;7.72;58.73;99860.31;5012230;28;20032;-81
2022/11/09 01:54:19;;;;;;;34.63;23.80;;;;;;;10.06;59.08;100236.84;5012381;28;20060;-81
2022/11/09 01:56:49;;;;;;;30.53;23.70;;;;;;;9.11;59.28;100089.31;5012335;28;20030;-81
2022/11/09 01:59:19;;;;;;;29.02;23.13;;;;;;;9.16;59.12;100095.78;5012029;28;20265;-81
2022/11/09 02:01:45;;;;;;;35.97;27.65;;;;;;;8.86;58.83;100099.66;5011993;28;20053;-81
2022/11/09 02:04:24;;;;;;;35.30;25.23;;;;;;;9.43;58.47;100128.22;5011989;28;20029;-81
2022/11/09 02:06:50;;;;;;;33.47;26.00;;;;;;;10.11;58.82;100242.47;5011751;28;20568;-81
2022/11/09 02:09:30;;;;;;;36.78;26.08;;;;;;;8.93;58.62;100051.69;5011945;28;20025;-81
2022/11/09 02:11:55;;;;;;;36.78;28.50;;;;;;;9.54;58.62;100165.66;5011959;28;20022;-81
2022/11/09 02:14:24;;;;;;;38.42;29.20;;;;;;;10.12;58.56;100253.84;5011860;28;20045;-81
2022/11/09 02:16:49;;;;;;;37.58;28.75;;;;;;;9.41;58.63;100131.00;5011909;28;20033;-82
2022/11/09 02:19:15;;;;;;;42.78;29.90;;;;;;;9.24;58.47;100129.25;5011829;28;20025;-81
2022/11/09 02:21:40;;;;;;;38.78;29.58;;;;;;;9.79;58.69;100195.66;5011784;28;20096;-81
2022/11/09 02:24:06;;;;;;;42.13;28.30;;;;;;;9.62;59.10;100166.69;5011735;28;20163;-81
2022/11/09 02:26:40;;;;;;;39.15;28.02;;;;;;;10.22;58.53;100259.88;5011595;28;20022;-81
2022/11/09 02:29:09;;;;;;;39.17;26.85;;;;;;;9.86;59.03;100212.50;5011726;28;20053;-81
2022/11/09 02:31:38;;;;;;;38.15;29.00;;;;;;;10.04;59.19;100283.66;5011647;28;20030;-81
2022/11/09 02:34:08;;;;;;;39.83;27.98;;;;;;;9.85;58.99;100223.22;5011516;28;20033;-81
2022/11/09 02:36:33;;;;;;;39.53;29.42;;;;;;;10.09;59.09;100291.09;5011555;28;20064;-81
2022/11/09 02:38:59;;;;;;;39.67;28.83;;;;;;;9.70;58.96;100199.25;5011648;28;20029;-81
2022/11/09 02:41:26;;;;;;;41.15;27.58;;;;;;;8.60;59.27;100023.28;5010445;28;20414;-81
2022/11/09 02:43:53;;;;;;;37.50;27.65;;;;;;;8.47;59.44;100019.41;5011669;28;20030;-82
2022/11/09 02:46:24;;;;;;;38.20;29.88;;;;;;;10.04;59.33;100269.66;5011702;28;20029;-81
2022/11/09 02:48:50;;;;;;;38.13;31.27;;;;;;;9.34;59.52;100135.25;5011690;28;20088;-81
2022/11/09 02:51:15;;;;;;;41.60;31.77;;;;;;;8.94;59.42;100063.84;5011181;28;20483;-81
2022/11/09 02:53:40;;;;;;;42.28;30.80;;;;;;;9.09;59.27;100068.41;5011462;28;20109;-81
2022/11/09 02:56:06;;;;;;;39.90;30.30;;;;;;;8.07;58.96;99939.13;5011461;28;20030;-81
2022/11/09 02:58:31;;;;;;;40.13;30.20;;;;;;;10.33;58.97;100277.25;5011504;28;20030;-81
2022/11/09 03:00:57;;;;;;;43.85;30.70;;;;;;;9.77;59.18;100173.91;5011488;28;20080;-81
2022/11/09 03:03:22;;;;;;;41.58;31.75;;;;;;;10.27;58.45;100267.31;5011354;28;20474;-81
2022/11/09 03:05:47;;;;;;;48.45;33.65;;;;;;;10.27;58.83;100252.31;5011436;28;20029;-81
2022/11/09 03:08:13;;;;;;;43.58;31.38;;;;;;;9.96;58.38;100212.41;5011201;28;20054;-81
2022/11/09 03:10:38;;;;;;;44.95;32.58;;;;;;;9.81;58.96;100177.03;5011168;28;20030;-81
2022/11/09 03:13:04;;;;;;;47.13;32.95;;;;;;;9.85;58.96;100184.47;5011257;28;20391;-81
2022/11/09 03:15:29;;;;;;;42.70;31.80;;;;;;;9.60;59.08;100151.03;5011057;28;20026;-81
2022/11/09 03:17:55;;;;;;;43.13;31.08;;;;;;;9.88;59.59;100205.25;5011239;28;20030;-81
2022/11/09 03:20:20;;;;;;;44.42;30.05;;;;;;;10.03;59.80;100218.69;5011866;28;20030;-82
2022/11/09 03:22:46;;;;;;;44.25;32.33;;;;;;;9.23;60.41;100125.78;5014930;28;20026;-81
2022/11/09 03:25:11;;;;;;;45.25;33.25;;;;;;;9.85;60.90;100208.22;5014983;28;20501;-81
2022/11/09 03:27:36;;;;;;;45.08;32.83;;;;;;;9.52;60.58;100154.44;5014973;28;20033;-82
2022/11/09 03:30:02;;;;;;;39.67;31.83;;;;;;;9.08;59.98;100074.66;5014962;28;20033;-81
2022/11/09 03:32:28;;;;;;;48.20;35.88;;;;;;;10.37;59.58;100268.00;5014875;28;20418;-81
2022/11/09 03:34:53;;;;;;;48.00;33.70;;;;;;;10.24;59.87;100228.88;5014574;28;20025;-81
2022/11/09 03:37:19;;;;;;;43.88;32.42;;;;;;;10.09;58.83;100201.41;5014691;28;20053;-81
2022/11/09 03:39:44;;;;;;;38.85;30.15;;;;;;;10.07;58.36;100251.69;5015088;28;20033;-81
2022/11/09 03:42:09;;;;;;;37.10;27.45;;;;;;;9.62;58.38;100143.78;5014755;28;20101;-81
2022/11/09 03:44:35;;;;;;;36.45;31.10;;;;;;;9.13;58.28;100080.28;5014511;28;20033;-81
2022/11/09 03:47:00;;;;;;;42.55;30.08;;;;;;;9.81;58.15;100203.41;5014662;28;20105;-81
2022/11/09 03:49:26;;;;;;;37.92;28.20;;;;;;;9.48;58.33;100178.66;5014244;28;20021;-81
2022/11/09 03:51:51;;;;;;;39.15;27.52;;;;;;;10.08;58.43;100286.81;5014391;28;20139;-81
2022/11/09 03:54:16;;;;;;;41.22;30.75;;;;;;;9.56;58.24;100220.88;5014496;28;20030;-81
2022/11/09 03:56:42;;;;;;;38.20;28.70;;;;;;;9.66;58.14;100237.44;5014657;28;20030;-81
2022/11/09 03:59:07;;;;;;;41.05;27.92;;;;;;;9.83;58.57;100281.41;5014463;28;20029;-81
2022/11/09 04:01:33;;;;;;;40.33;29.27;;;;;;;8.57;57.95;100099.09;5014404;28;20426;-81
2022/11/09 04:03:58;;;;;;;40.78;28.85;;;;;;;9.56;58.35;100299.97;5012867;28;20029;-82
2022/11/09 04:06:23;;;;;;;46.47;30.35;;;;;;;9.46;58.68;100299.22;5014094;28;20475;-81
2022/11/09 04:08:49;;;;;;;40.58;29.80;;;;;;;9.22;58.66;100249.78;5013910;28;20049;-81
2022/11/09 04:11:14;;;;;;;39.30;30.25;;;;;;;9.30;58.69;100272.72;5013937;28;20534;-81
2022/11/09 04:13:40;;;;;;;40.50;28.65;;;;;;;8.67;58.88;100168.28;5013992;28;20093;-82
2022/11/09 04:16:05;;;;;;;35.10;26.52;;;;;;;7.93;59.10;100044.84;5013966;28;20108;-81
2022/11/09 04:18:31;;;;;;;38.72;29.50;;;;;;;9.08;58.89;100221.34;5014098;28;20040;-81
2022/11/09 04:20:58;;;;;;;37.40;28.77;;;;;;;9.37;58.84;100258.78;5014088;28;20029;-82
2022/11/09 04:23:23;;;;;;;39.78;29.42;;;;;;;8.96;58.54;100190.94;5013986;28;20029;-81
2022/11/09 04:25:49;;;;;;;37.65;28.67;;;;;;;9.11;59.21;100213.13;5012589;28;20428;-81
2022/11/09 04:28:14;;;;;;;39.70;27.25;;;;;;;9.59;58.98;100289.09;5012656;28;20029;-80
2022/11/09 04:30:40;;;;;;;34.25;27.13;;;;;;;9.50;58.67;100276.84;5013519;28;20092;-82
2022/11/09 04:33:05;;;;;;;37.30;28.25;;;;;;;9.14;59.00;100221.56;5012510;28;20068;-81
2022/11/09 04:35:32;;;;;;;36.80;27.80;;;;;;;9.57;58.96;100285.78;5013415;28;20056;-81
2022/11/09 04:38:00;;;;;;;36.75;28.50;;;;;;;8.22;58.84;100081.47;5013349;28;20025;-80
2022/11/09 04:40:28;;;;;;;39.72;30.30;;;;;;;9.57;58.93;100281.34;5013563;28;20030;-81
2022/11/09 04:42:54;;;;;;;38.75;28.13;;;;;;;8.04;59.00;100039.34;5013427;28;20024;-81
2022/11/09 04:45:21;;;;;;;35.40;27.60;;;;;;;9.61;58.89;100287.16;5013401;28;20449;-79
2022/11/09 04:47:46;;;;;;;38.78;29.15;;;;;;;9.60;58.85;100308.38;5013469;28;20060;-80
2022/11/09 04:50:12;;;;;;;37.90;28.17;;;;;;;9.62;59.00;100286.16;5013421;28;20069;-81
2022/11/09 04:52:38;;;;;;;39.17;28.80;;;;;;;8.71;58.70;100139.84;5013265;28;20045;-81
2022/11/09 04:55:04;;;;;;;37.90;27.20;;;;;;;8.88;58.82;100175.88;5011852;28;20155;-81
2022/11/09 04:57:29;;;;;;;35.17;27.85;;;;;;;8.20;58.95;100063.22;5013198;28;20049;-81
2022/11/09 04:59:54;;;;;;;55.30;33.75;;;;;;;8.51;59.21;100142.63;5013322;28;20384;-81
2022/11/09 05:02:20;;;;;;;49.35;33.53;;;;;;;8.13;59.10;100095.50;5013240;28;20029;-81
2022/11/09 05:04:45;;;;;;;38.95;28.00;;;;;;;9.34;59.19;100248.56;5013095;28;20026;-81
2022/11/09 05:07:10;;;;;;;33.70;26.55;;;;;;;9.72;59.28;100333.56;5012035;28;20523;-81
2022/11/09 05:09:36;;;;;;;34.35;26.58;;;;;;;9.63;59.15;100292.25;5013024;28;20029;-81
2022/11/09 05:12:01;;;;;;;35.75;26.52;;;;;;;8.41;59.24;100091.06;5013296;28;20088;-81
2022/11/09 05:14:27;;;;;;;31.30;24.80;;;;;;;9.13;58.90;100193.56;5011662;28;20528;-81
2022/11/09 05:16:52;;;;;;;32.85;25.00;;;;;;;9.24;59.01;100227.56;5012910;28;20029;-81
2022/11/09 05:19:17;;;;;;;33.08;24.75;;;;;;;9.48;58.95;100249.81;5013089;28;20029;-81
2022/11/09 05:21:43;;;;;;;36.72;25.90;;;;;;;8.63;58.95;100127.44;5012584;28;20111;-81
2022/11/09 05:24:08;;;;;;;37.70;26.63;;;;;;;9.59;58.80;100264.56;5012821;28;20604;-81
2022/11/09 05:26:39;;;;;;;38.22;26.83;;;;;;;9.93;58.83;100323.50;5012753;28;20036;-81
2022/11/09 05:29:08;;;;;;;34.50;25.27;;;;;;;9.46;58.62;100262.31;5013095;28;20033;-82
2022/11/09 05:31:35;;;;;;;41.88;28.58;;;;;;;9.25;58.62;100202.03;5012787;28;20029;-81
2022/11/09 05:34:01;;;;;;;37.45;26.50;;;;;;;10.01;58.96;100326.19;5012857;28;20078;-82
2022/11/09 05:36:27;;;;;;;42.70;27.83;;;;;;;9.93;59.05;100306.84;5012506;28;20473;-82
2022/11/09 05:38:53;;;;;;;37.45;26.10;;;;;;;8.66;58.63;100110.53;5012419;28;20053;-82
2022/11/09 05:41:19;;;;;;;40.47;28.55;;;;;;;10.11;58.57;100339.28;5011265;28;20022;-83
2022/11/09 05:43:45;;;;;;;37.45;27.75;;;;;;;9.57;58.59;100262.91;5010824;28;20026;-81
2022/11/09 05:46:12;;;;;;;37.05;28.75;;;;;;;10.17;58.75;100338.66;5012430;28;20030;-81
2022/11/09 05:48:38;;;;;;;40.90;29.33;;;;;;;10.15;58.39;100341.44;5011301;28;20032;-81
2022/11/09 05:51:05;;;;;;;40.67;29.35;;;;;;;10.18;58.25;100335.84;5012126;28;20411;-81
2022/11/09 05:53:31;;;;;;;38.25;28.45;;;;;;;10.20;58.45;100362.13;5012345;28;20037;-81
2022/11/09 05:56:01;;;;;;;44.42;30.58;;;;;;;9.91;57.97;100301.72;5012375;28;20609;-81
2022/11/09 05:58:26;;;;;;;42.67;30.20;;;;;;;10.04;58.65;100327.69;5012189;28;20033;-81
2022/11/09 06:00:52;;;;;;;45.50;33.17;;;;;;;8.55;58.83;100091.34;5012340;28;20026;-81
2022/11/09 06:03:17;;;;;;;44.60;31.77;;;;;;;9.93;58.88;100322.66;5012032;28;20030;-82
2022/11/09 06:05:42;;;;;;;40.28;30.25;;;;;;;9.57;58.89;100262.91;5012213;28;20026;-82
2022/11/09 06:08:13;;;;;;;56.17;37.63;;;;;;;10.13;58.79;100366.34;5011467;28;20431;-81
2022/11/09 06:10:39;;;;;;;45.85;32.17;;;;;;;9.37;58.56;100227.16;5011912;28;20088;-81
2022/11/09 06:13:05;;;;;;;38.85;28.90;;;;;;;10.23;58.46;100360.97;5011970;28;20021;-82
2022/11/09 06:15:30;;;;;;;40.42;29.42;;;;;;;8.99;58.58;100162.50;5010765;28;20410;-82
2022/11/09 06:17:57;;;;;;;39.75;31.35;;;;;;;10.30;58.64;100367.28;5011539;28;20041;-81
2022/11/09 06:20:23;;;;;;;38.22;28.65;;;;;;;10.36;58.93;100364.84;5011780;28;20041;-82
2022/11/09 06:22:59;;;;;;;41.25;30.10;;;;;;;10.42;58.61;100368.72;5012046;28;20022;-81
2022/11/09 06:25:25;;;;;;;46.72;32.38;;;;;;;9.76;58.66;100274.25;5011679;28;20053;-81
2022/11/09 06:27:53;;;;;;;42.30;32.97;;;;;;;8.11;58.16;99995.72;5011665;28;20487;-81
2022/11/09 06:30:18;;;;;;;48.38;34.33;;;;;;;9.38;58.07;100180.56;5011700;28;20036;-82
2022/11/09 06:32:44;;;;;;;55.50;37.45;;;;;;;10.62;58.39;100414.19;5011598;28;20034;-82
2022/11/09 06:35:09;;;;;;;62.10;39.50;;;;;;;9.74;58.16;100234.88;5011181;28;20112;-82
2022/11/09 06:37:35;;;;;;;49.35;34.20;;;;;;;9.85;58.12;100242.50;5011383;28;20033;-82
2022/11/09 06:40:00;;;;;;;50.80;36.78;;;;;;;10.30;58.36;100304.78;5010391;28;20406;-81
2022/11/09 06:42:26;;;;;;;47.17;34.40;;;;;;;10.27;57.71;100288.44;5011280;28;20030;-82
2022/11/09 06:44:51;;;;;;;51.13;36.30;;;;;;;10.21;58.33;100265.31;5009127;28;20030;-82
2022/11/09 06:47:16;;;;;;;68.70;43.88;;;;;;;9.54;57.69;100159.56;5011178;28;20045;-82
2022/11/09 06:49:42;;;;;;;50.05;34.30;;;;;;;10.21;58.00;100274.06;5011649;28;20100;-82
2022/11/09 06:52:07;;;;;;;65.95;40.75;;;;;;;10.09;58.48;100251.53;5011428;28;20026;-82
2022/11/09 06:54:33;;;;;;;58.13;39.42;;;;;;;10.36;58.59;100298.03;5011380;28;20032;-82
2022/11/09 06:56:59;;;;;;;57.08;41.08;;;;;;;9.38;58.75;100133.13;5005176;28;20028;-82
2022/11/09 06:59:24;;;;;;;52.80;37.65;;;;;;;9.83;58.96;100194.38;5010434;28;20040;-81
2022/11/09 07:01:49;;;;;;;55.40;36.25;;;;;;;11.01;58.67;100357.22;5012871;28;20026;-81
2022/11/09 07:04:15;;;;;;;48.28;33.97;;;;;;;11.20;58.26;100395.81;5008193;28;20506;-81
2022/11/09 07:06:41;;;;;;;46.05;31.73;;;;;;;10.86;58.34;100306.00;5014312;28;20022;-82
2022/11/09 07:09:08;;;;;;;53.00;35.30;;;;;;;10.47;58.45;100234.41;5006029;28;20026;-81
2022/11/09 07:11:33;;;;;;;50.33;37.90;;;;;;;9.51;58.24;100086.91;5008408;28;20061;-81
2022/11/09 07:14:00;;;;;;;49.90;37.35;;;;;;;10.24;58.56;100176.09;5010972;28;20045;-81
2022/11/09 07:16:25;;;;;;;55.60;40.22;;;;;;;11.49;58.82;100371.56;5015460;28;20030;-82
2022/11/09 07:18:51;;;;;;;58.67;41.38;;;;;;;10.98;58.40;100277.47;5007798;28;20037;-81
2022/11/09 07:21:16;;;;;;;65.60;44.03;;;;;;;10.12;57.94;100122.75;5011125;28;20113;-82
2022/11/09 07:23:42;;;;;;;62.08;48.78;;;;;;;10.11;57.90;100122.91;5011454;28;20034;-81
2022/11/09 07:26:08;;;;;;;66.55;45.88;;;;;;;10.62;58.24;100185.28;5000674;28;20586;-85
2022/11/09 07:28:33;;;;;;;67.50;48.15;;;;;;;11.66;58.04;100349.44;5004600;28;20022;-85
2022/11/09 07:30:59;;;;;;;60.30;43.72;;;;;;;10.38;57.96;100143.78;5014432;28;20030;-86
2022/11/09 07:33:25;;;;;;;58.38;45.30;;;;;;;11.97;58.13;100373.44;5013864;28;20462;-85
2022/11/09 07:35:51;;;;;;;75.47;53.05;;;;;;;12.08;57.69;100367.00;5012315;28;20556;-84
2022/11/09 07:38:16;;;;;;;62.05;46.58;;;;;;;11.13;57.75;100196.53;5010473;28;20026;-84
2022/11/09 07:40:43;;;;;;;67.97;48.15;;;;;;;11.43;57.64;100246.13;5014491;28;20030;-85
2022/11/09 07:43:09;;;;;;;72.07;49.45;;;;;;;11.17;57.83;100203.19;5013337;28;20025;-85
2022/11/09 07:45:35;;;;;;;65.45;48.33;;;;;;;12.33;57.60;100368.59;5012646;28;20403;-85
2022/11/09 07:48:07;;;;;;;66.43;46.95;;;;;;;12.07;57.77;100312.41;5010318;28;20076;-84
2022/11/09 07:50:33;;;;;;;66.55;49.90;;;;;;;12.49;58.25;100359.78;5007453;28;20021;-85
2022/11/09 07:53:00;;;;;;;60.03;44.35;;;;;;;12.50;58.01;100373.84;5005260;28;20029;-84
2022/11/09 07:55:27;;;;;;;54.50;39.72;;;;;;;12.65;57.63;100366.88;5002372;28;20030;-85
2022/11/09 07:58:04;;;;;;;54.63;38.42;;;;;;;12.71;58.16;100361.72;4993407;28;20408;-86
2022/11/09 08:00:31;;;;;;;49.08;38.58;;;;;;;12.72;57.94;100381.91;4995299;28;20022;-85
2022/11/09 08:02:57;;;;;;;53.78;38.58;;;;;;;12.28;57.98;100296.78;5008675;28;20018;-85
2022/11/09 08:05:23;;;;;;;57.90;41.25;;;;;;;12.61;57.72;100336.38;5008531;28;20038;-86
2022/11/09 08:07:54;;;;;;;58.55;40.65;;;;;;;12.88;58.15;100366.94;5001812;28;20129;-84
2022/11/09 08:10:21;;;;;;;;;;;;;;;12.89;58.19;100361.47;5010385;28;20034;-85
2022/11/09 08:12:54;;;;;;;46.33;34.45;;;;;;;12.59;57.91;100312.72;5005333;28;20020;-83
2022/11/09 08:15:20;;;;;;;43.90;32.95;;;;;;;12.29;57.77;100249.94;4998418;28;20518;-84
2022/11/09 08:17:45;;;;;;;44.05;33.47;;;;;;;12.87;57.69;100325.53;4996323;28;20030;-85
2022/11/09 08:20:10;;;;;;;49.20;35.65;;;;;;;12.33;57.75;100232.72;5006404;28;20112;-84
2022/11/09 08:22:43;;;;;;;51.75;37.35;;;;;;;12.83;57.90;100319.75;5004840;28;20034;-85
2022/11/09 08:25:10;;;;;;;49.83;36.85;;;;;;;12.80;57.82;100276.88;5008289;28;20518;-85
2022/11/09 08:27:39;;;;;;;48.33;35.17;;;;;;;12.85;57.74;100258.63;5008063;28;20034;-84
2022/11/09 08:30:06;;;;;;;40.70;32.47;;;;;;;13.54;57.58;100362.97;5011366;28;20493;-84
2022/11/09 08:32:32;;;;;;;41.47;31.85;;;;;;;12.84;57.58;100241.91;5005296;28;20057;-85
2022/11/09 08:34:58;;;;;;;41.70;32.63;;;;;;;13.50;57.44;100328.00;5003740;28;20491;-84
2022/11/09 08:37:23;;;;;;;35.80;30.40;;;;;;;13.33;57.09;100300.75;5005759;28;20037;-84
2022/11/09 08:39:48;;;;;;;47.40;34.58;;;;;;;13.09;57.34;100236.44;5006495;28;20038;-84
2022/11/09 08:42:14;;;;;;;38.35;30.05;;;;;;;13.00;56.91;100219.75;5009485;28;20017;-85
2022/11/09 08:44:39;;;;;;;43.67;34.38;;;;;;;13.56;56.72;100321.97;4998316;28;20513;-85
2022/11/09 08:47:05;;;;;;;39.42;30.23;;;;;;;14.11;56.86;100394.34;5006620;28;20021;-84
2022/11/09 08:49:31;;;;;;;38.33;30.17;;;;;;;13.33;56.57;100225.66;4996637;28;20181;-84
2022/11/09 08:51:56;;;;;;;34.72;28.65;;;;;;;13.30;56.45;100231.31;5001924;28;20592;-84
2022/11/09 08:54:22;;;;;;;37.85;29.08;;;;;;;13.12;56.38;100161.84;5012521;28;20065;-84
2022/11/09 08:56:47;;;;;;;35.08;27.33;;;;;;;14.20;56.30;100310.94;5007620;28;20054;-84
2022/11/09 08:59:13;;;;;;;36.72;30.67;;;;;;;13.93;56.33;100270.72;5013283;28;20029;-85
2022/11/09 09:01:38;;;;;;;39.08;29.15;;;;;;;14.29;56.36;100301.88;5002233;28;20029;-84
2022/11/09 09:04:03;;;;;;;40.33;29.73;;;;;;;14.71;56.13;100378.31;5003447;28;20490;-84
2022/11/09 09:06:29;;;;;;;37.72;30.55;;;;;;;14.26;56.20;100267.72;5008793;28;20033;-83
2022/11/09 09:08:54;;;;;;;35.08;27.42;;;;;;;14.22;55.84;100285.84;5008471;28;20537;-83
2022/11/09 09:11:19;;;;;;;36.42;26.58;;;;;;;14.36;55.82;100286.84;4999476;28;20041;-82
2022/11/09 09:13:48;;;;;;;33.67;25.67;;;;;;;14.65;55.63;100291.34;5006209;28;20545;-83
2022/11/09 09:16:14;;;;;;;31.08;25.23;;;;;;;14.75;55.62;100293.72;5001622;28;20036;-83
2022/11/09 09:18:40;;;;;;;29.25;23.23;;;;;;;14.31;55.05;100236.94;5010970;28;20034;-82
2022/11/09 09:21:09;;;;;;;33.28;27.90;;;;;;;14.98;55.19;100290.94;5012562;28;20514;-83
2022/11/09 09:23:35;;;;;;;31.20;24.63;;;;;;;14.72;54.91;100235.59;4994618;28;20022;-83
2022/11/09 09:26:00;;;;;;;31.75;25.33;;;;;;;15.46;54.91;100353.22;4994903;28;20040;-83
2022/11/09 09:28:26;;;;;;;32.38;23.55;;;;;;;15.01;54.91;100242.69;5009096;28;20060;-84
2022/11/09 09:30:52;;;;;;;30.85;25.02;;;;;;;14.26;54.32;100122.47;5012298;28;20033;-83
2022/11/09 09:33:17;;;;;;;31.55;25.50;;;;;;;14.62;54.32;100158.84;5010874;28;20033;-83
2022/11/09 09:35:42;;;;;;;33.70;25.05;;;;;;;15.17;54.49;100237.94;5009875;28;20474;-84
2022/11/09 09:38:08;;;;;;;29.55;24.25;;;;;;;14.83;53.97;100181.94;5010988;28;20619;-83
2022/11/09 09:40:40;;;;;;;28.42;20.48;;;;;;;15.39;53.78;100259.19;5005321;28;20030;-84
2022/11/09 09:43:14;;;;;;;29.20;22.13;;;;;;;15.56;53.40;100266.72;5007537;28;20101;-84
2022/11/09 09:45:47;;;;;;;30.38;21.55;;;;;;;15.98;53.63;100315.63;5008076;28;20056;-83
2022/11/09 09:48:26;;;;;;;26.98;21.88;;;;;;;15.84;52.91;100284.59;5006471;28;20117;-84
2022/11/09 09:50:55;;;;;;;26.17;22.20;;;;;;;16.12;53.12;100319.19;5010835;28;20487;-84
2022/11/09 09:53:35;;;;;;;26.23;18.70;;;;;;;16.17;52.58;100306.13;5004230;28;20022;-83
2022/11/09 09:56:17;;;;;;;20.70;18.50;;;;;;;16.14;52.45;100279.88;5023051;28;20041;-83
2022/11/09 09:59:14;;;;;;;20.15;15.73;;;;;;;15.09;52.19;100097.09;5007677;28;20084;-83
2022/11/09 10:01:42;;;;;;;19.38;15.77;;;;;;;15.89;51.79;100210.25;5008533;28;20073;-83
2022/11/09 10:04:20;;;;;;;18.05;15.13;;;;;;;16.52;51.87;100293.63;4992920;28;20066;-83
2022/11/09 10:06:59;;;;;;;20.05;15.18;;;;;;;16.57;51.57;100295.69;4992244;28;20049;-83
2022/11/09 10:09:52;;;;;;;23.13;14.43;;;;;;;16.61;51.37;100288.94;5008736;28;20172;-83
2022/11/09 10:12:51;;;;;;;17.38;15.43;;;;;;;16.51;51.36;100268.81;5011887;28;20045;-83
2022/11/09 10:15:25;;;;;;;17.50;14.75;;;;;;;16.70;51.01;100293.94;4994806;28;20495;-83
2022/11/09 10:18:08;;;;;;;19.52;14.00;;;;;;;15.42;51.02;100113.28;4993059;28;20105;-82
2022/11/09 10:20:42;;;;;;;18.27;14.25;;;;;;;16.77;50.72;100289.44;4994751;28;20038;-83
2022/11/09 10:23:07;;;;;;;20.02;13.77;;;;;;;16.79;50.81;100287.41;5001180;28;20022;-82
2022/11/09 10:25:37;;;;;;;16.30;13.68;;;;;;;16.17;50.45;100188.88;5004778;28;20036;-83
2022/11/09 10:28:09;;;;;;;19.88;13.10;;;;;;;15.65;50.71;100121.03;5002666;28;20157;-82
2022/11/09 10:30:34;;;;;;;22.38;14.20;;;;;;;16.34;50.41;100208.03;5006255;28;20116;-83
2022/11/09 10:33:09;;;;;;;18.10;12.60;;;;;;;16.89;50.42;100280.88;5004037;28;20422;-83
2022/11/09 10:35:46;;;;;;;14.90;12.45;;;;;;;16.73;50.55;100250.03;5006883;28;20100;-83
2022/11/09 10:38:19;;;;;;;19.45;13.60;;;;;;;16.94;50.50;100273.06;5008911;28;20471;-83
2022/11/09 10:40:54;;;;;;;16.80;13.90;;;;;;;16.78;50.30;100237.75;5006291;28;20026;-82
2022/11/09 10:43:19;;;;;;;17.23;15.43;;;;;;;15.64;50.01;100082.13;5000495;28;20025;-83
2022/11/09 10:45:56;;;;;;;14.70;13.02;;;;;;;16.24;50.16;100155.09;5003437;28;20031;-83
2022/11/09 10:48:33;;;;;;;17.38;13.25;;;;;;;17.01;50.08;100250.72;4992301;28;20125;-82
2022/11/09 10:50:58;;;;;;;18.40;14.18;;;;;;;17.04;49.91;100257.50;4991777;28;20054;-82
2022/11/09 10:53:27;;;;;;;17.38;14.35;;;;;;;16.59;49.99;100173.69;5005141;28;20040;-82
2022/11/09 10:56:03;;;;;;;19.35;14.60;;;;;;;16.69;49.95;100190.97;5002591;28;20026;-82
2022/11/09 10:58:35;;;;;;;20.77;14.55;;;;;;;17.00;49.91;100240.25;5007314;28;20044;-81
2022/11/09 11:01:10;;;;;;;20.23;14.43;;;;;;;17.04;49.96;100244.16;5010139;28;20030;-82
2022/11/09 11:03:36;;;;;;;23.50;14.98;;;;;;;17.03;50.16;100251.34;5007434;28;20085;-81
2022/11/09 11:06:20;;;;;;;18.33;14.88;;;;;;;16.07;49.97;100090.69;5010381;28;20026;-82
2022/11/09 11:08:48;;;;;;;19.55;14.90;;;;;;;17.02;50.30;100233.69;4997553;28;20050;-83
2022/11/09 11:11:19;;;;;;;18.88;14.93;;;;;;;17.02;50.08;100236.34;5006721;28;20495;-83
2022/11/09 11:13:47;;;;;;;17.55;14.95;;;;;;;16.11;50.27;100096.44;4994032;28;20057;-83